Time;durP1;ratioP1;P1;durP2;ratioP2;P2;SDS_P1;SDS_P2;PMS_P1;PMS_P2;Temp;Humidity;BMP_temperature;BMP_pressure;BME280_temperature;BME280_humidity;BME280_pressure;Samples;Min_cycle;Max_cycle;Signal;HPM_P1;HPM_P2
2021/11/27 00:01:53;;;;;;;26.83;20.08;;;5.20;99.90;;;;;;5076045;28;20078;-64
2021/11/27 00:04:19;;;;;;;23.52;18.10;;;5.20;99.90;;;;;;5075798;28;20028;-64
2021/11/27 00:06:45;;;;;;;20.70;14.02;;;5.20;99.90;;;;;;5058045;28;20016;-64
2021/11/27 00:09:11;;;;;;;12.63;9.73;;;5.20;99.90;;;;;;5076137;28;20542;-65
2021/11/27 00:11:38;;;;;;;10.65;7.70;;;5.10;99.90;;;;;;5075848;28;20022;-64
2021/11/27 00:14:05;;;;;;;10.07;7.40;;;5.00;99.90;;;;;;5057908;28;20425;-64
2021/11/27 00:16:31;;;;;;;10.38;6.57;;;5.00;99.90;;;;;;5075673;28;20021;-64
2021/11/27 00:18:57;;;;;;;8.43;6.55;;;5.00;99.90;;;;;;5075635;28;20200;-64
2021/11/27 00:21:24;;;;;;;9.25;6.63;;;4.90;99.90;;;;;;5057739;28;20020;-64
2021/11/27 00:23:51;;;;;;;7.28;5.80;;;4.90;99.90;;;;;;5075783;28;20035;-65
2021/11/27 00:26:18;;;;;;;6.72;5.07;;;4.90;99.90;;;;;;5075607;28;20029;-64
2021/11/27 00:28:44;;;;;;;6.53;4.43;;;4.90;99.90;;;;;;5057733;28;20025;-64
2021/11/27 00:31:16;;;;;;;6.43;4.30;;;4.90;99.90;;;;;;5075495;28;20036;-64
2021/11/27 00:33:44;;;;;;;6.10;3.83;;;4.90;99.90;;;;;;5075231;28;20013;-64
2021/11/27 00:36:10;;;;;;;6.15;4.65;;;4.90;99.90;;;;;;5075680;28;20540;-64
2021/11/27 00:38:36;;;;;;;7.03;4.72;;;4.90;99.90;;;;;;5057467;28;20021;-64
2021/11/27 00:41:03;;;;;;;6.13;4.32;;;4.90;99.90;;;;;;5057491;28;20170;-65
2021/11/27 00:43:29;;;;;;;6.13;3.92;;;4.80;99.90;;;;;;5057241;28;20035;-64
2021/11/27 00:45:54;;;;;;;7.18;3.40;;;4.80;99.90;;;;;;5075270;28;20434;-64
2021/11/27 00:48:21;;;;;;;6.43;3.45;;;4.80;99.90;;;;;;5057364;28;20020;-64
2021/11/27 00:50:51;;;;;;;3.40;2.75;;;4.80;99.90;;;;;;5074911;28;20020;-64
2021/11/27 00:53:18;;;;;;;4.78;2.50;;;4.80;99.90;;;;;;5057140;28;20056;-64
2021/11/27 00:55:44;;;;;;;4.90;2.45;;;4.80;99.90;;;;;;5074961;28;20020;-64
2021/11/27 00:58:10;;;;;;;5.72;2.33;;;4.80;99.90;;;;;;5075043;28;20032;-65
2021/11/27 01:00:47;;;;;;;4.13;1.83;;;4.80;99.90;;;;;;5056873;28;20078;-64
2021/11/27 01:03:14;;;;;;;6.10;1.33;;;4.80;99.90;;;;;;5057953;28;20033;-64
2021/11/27 01:05:41;;;;;;;3.70;1.13;;;4.70;99.90;;;;;;5073775;28;20094;-64
2021/11/27 01:08:07;;;;;;;4.57;1.20;;;4.70;99.90;;;;;;5074751;28;20540;-64
2021/11/27 01:10:41;;;;;;;2.72;1.08;;;4.70;99.90;;;;;;5071803;28;20024;-64
2021/11/27 01:13:06;;;;;;;2.80;1.02;;;4.60;99.90;;;;;;5054459;28;20036;-65
2021/11/27 01:15:33;;;;;;;3.95;1.00;;;4.60;99.90;;;;;;5056813;28;20021;-64
2021/11/27 01:18:00;;;;;;;4.47;1.10;;;4.60;99.90;;;;;;5074623;28;20020;-64
2021/11/27 01:20:45;;;;;;;5.88;1.30;;;4.60;99.90;;;;;;5074371;28;20528;-64
2021/11/27 01:23:12;;;;;;;2.63;1.13;;;4.60;99.90;;;;;;5074565;28;20032;-64
2021/11/27 01:25:39;;;;;;;3.05;1.02;;;4.50;99.90;;;;;;5056487;28;20078;-64
2021/11/27 01:28:06;;;;;;;5.13;0.95;;;4.50;99.90;;;;;;5074364;28;20392;-65
2021/11/27 01:30:32;;;;;;;1.73;0.63;;;4.50;99.90;;;;;;5074498;28;20464;-65
2021/11/27 01:32:58;;;;;;;2.75;0.50;;;4.40;99.90;;;;;;5074282;28;20036;-65
2021/11/27 01:35:24;;;;;;;3.38;0.60;;;4.40;99.90;;;;;;5056356;28;20036;-64
2021/11/27 01:37:49;;;;;;;2.55;0.75;;;4.40;99.90;;;;;;5056250;28;20024;-65
2021/11/27 01:40:20;;;;;;;2.45;0.60;;;4.40;99.90;;;;;;5074306;28;20032;-65
2021/11/27 01:42:46;;;;;;;3.22;0.50;;;4.40;99.90;;;;;;5074242;28;20428;-64
2021/11/27 01:45:15;;;;;;;2.03;0.50;;;4.40;99.90;;;;;;5056124;28;20387;-64
2021/11/27 01:47:46;;;;;;;1.85;0.50;;;4.40;99.90;;;;;;5074113;28;20361;-64
2021/11/27 01:50:12;;;;;;;5.38;0.80;;;4.30;99.90;;;;;;5074101;28;20027;-64
2021/11/27 01:52:38;;;;;;;2.65;0.80;;;4.30;99.90;;;;;;5074319;28;20025;-64
2021/11/27 01:55:04;;;;;;;4.47;0.85;;;4.20;99.90;;;;;;5073839;28;20534;-65
2021/11/27 01:57:29;;;;;;;3.45;0.90;;;4.20;99.90;;;;;;5055630;28;20450;-64
2021/11/27 01:59:55;;;;;;;1.75;0.68;;;4.20;99.90;;;;;;5073988;28;20107;-64
2021/11/27 02:02:21;;;;;;;2.22;0.70;;;4.20;99.90;;;;;;5073730;28;20032;-64
2021/11/27 02:04:46;;;;;;;2.95;0.80;;;4.20;99.90;;;;;;5073719;28;20400;-64
2021/11/27 02:07:14;;;;;;;4.50;0.80;;;4.10;99.90;;;;;;5073425;28;20095;-64
2021/11/27 02:09:40;;;;;;;2.53;0.80;;;4.10;99.90;;;;;;5073593;28;20077;-65
2021/11/27 02:12:09;;;;;;;1.80;0.60;;;4.10;99.90;;;;;;5073620;28;20097;-64
2021/11/27 02:14:35;;;;;;;2.83;0.57;;;4.10;99.90;;;;;;5073492;28;20493;-64
2021/11/27 02:17:01;;;;;;;2.40;0.50;;;4.10;99.90;;;;;;5073377;28;20017;-64
2021/11/27 02:19:26;;;;;;;1.10;0.30;;;4.20;99.90;;;;;;5073373;28;20089;-64
2021/11/27 02:22:07;;;;;;;1.70;0.55;;;4.10;99.90;;;;;;5055177;28;20020;-64
2021/11/27 02:24:33;;;;;;;1.40;0.50;;;4.10;99.90;;;;;;5055381;28;20044;-64
2021/11/27 02:26:59;;;;;;;2.17;0.60;;;4.10;99.90;;;;;;5073482;28;20472;-65
2021/11/27 02:29:27;;;;;;;2.53;0.35;;;4.10;99.90;;;;;;5073009;28;20016;-64
2021/11/27 02:31:54;;;;;;;3.22;0.40;;;4.10;99.90;;;;;;5073335;28;20056;-64
2021/11/27 02:34:20;;;;;;;1.38;0.35;;;4.10;99.90;;;;;;5072918;28;20028;-64
2021/11/27 02:36:50;;;;;;;1.88;0.47;;;4.10;99.90;;;;;;5055156;28;20023;-65
2021/11/27 02:39:16;;;;;;;;;;;4.00;99.90;;;;;;5055853;28;20443;-64
2021/11/27 02:41:42;;;;;;;2.08;0.50;;;4.00;99.90;;;;;;5073203;28;19904;-64
2021/11/27 02:44:09;;;;;;;2.22;0.50;;;3.90;99.90;;;;;;5072841;28;20029;-65
2021/11/27 02:46:36;;;;;;;1.63;0.43;;;3.90;99.90;;;;;;5073166;28;20385;-65
2021/11/27 02:49:03;;;;;;;2.60;0.50;;;3.90;99.90;;;;;;5072872;28;20043;-64
2021/11/27 02:51:29;;;;;;;0.70;0.30;;;3.90;99.90;;;;;;5072948;28;20032;-65
2021/11/27 02:53:55;;;;;;;1.27;0.40;;;3.90;99.90;;;;;;5071455;28;20109;-64
2021/11/27 02:56:20;;;;;;;0.95;0.50;;;3.80;99.90;;;;;;5072639;28;20049;-64
2021/11/27 02:58:46;;;;;;;1.52;0.60;;;3.80;99.90;;;;;;5072864;28;20020;-64
2021/11/27 03:01:12;;;;;;;2.20;0.75;;;3.80;99.90;;;;;;5072831;28;20107;-64
2021/11/27 03:03:39;;;;;;;3.30;0.25;;;3.80;99.90;;;;;;5072686;28;20100;-65
2021/11/27 03:06:05;;;;;;;0.98;0.28;;;3.80;99.90;;;;;;5072775;28;20032;-65
2021/11/27 03:08:31;;;;;;;0.77;0.30;;;3.70;99.90;;;;;;5072624;28;20024;-65
2021/11/27 03:10:57;;;;;;;1.55;0.30;;;3.70;99.90;;;;;;5072739;28;20074;-65
2021/11/27 03:13:28;;;;;;;0.47;0.20;;;3.70;99.90;;;;;;5072620;28;20020;-65
2021/11/27 03:15:53;;;;;;;1.15;0.40;;;3.70;99.90;;;;;;5072631;28;20058;-64
2021/11/27 03:18:19;;;;;;;1.63;0.40;;;3.60;99.90;;;;;;5072599;28;20385;-64
2021/11/27 03:20:44;;;;;;;1.38;0.50;;;3.60;99.90;;;;;;5072637;28;20556;-65
2021/11/27 03:23:10;;;;;;;1.42;0.60;;;3.60;99.90;;;;;;5072479;28;20484;-64
2021/11/27 03:25:35;;;;;;;1.45;0.60;;;3.60;99.90;;;;;;5072552;28;20036;-64
2021/11/27 03:28:02;;;;;;;0.98;0.50;;;3.60;99.90;;;;;;5072582;28;20388;-64
2021/11/27 03:30:27;;;;;;;1.02;0.35;;;3.50;99.90;;;;;;5075220;28;20071;-65
2021/11/27 03:32:53;;;;;;;0.73;0.50;;;3.50;99.90;;;;;;5076795;28;20044;-64
2021/11/27 03:35:19;;;;;;;0.60;0.30;;;3.50;99.90;;;;;;5076570;28;20093;-65
2021/11/27 03:37:46;;;;;;;1.10;0.30;;;3.50;99.90;;;;;;5076558;28;20021;-65
2021/11/27 03:40:12;;;;;;;1.40;0.40;;;3.50;99.90;;;;;;5076536;28;20032;-65
2021/11/27 03:42:37;;;;;;;1.48;0.40;;;3.50;99.90;;;;;;5076542;28;20500;-65
2021/11/27 03:45:10;;;;;;;0.73;0.30;;;3.40;99.90;;;;;;5076310;28;20028;-65
2021/11/27 03:47:36;;;;;;;1.95;0.30;;;3.40;99.90;;;;;;5076504;28;20097;-64
2021/11/27 03:50:01;;;;;;;0.60;0.50;;;3.40;99.90;;;;;;5076263;28;20064;-64
2021/11/27 03:52:27;;;;;;;0.85;0.30;;;3.40;99.90;;;;;;5076346;28;20064;-64
2021/11/27 03:54:52;;;;;;;1.85;1.17;;;3.40;99.90;;;;;;5057987;28;20012;-64
2021/11/27 03:57:18;;;;;;;1.27;0.38;;;3.40;99.90;;;;;;5041620;28;20564;-64
2021/11/27 03:59:44;;;;;;;1.20;0.30;;;3.40;99.90;;;;;;5076044;28;20025;-65
2021/11/27 04:02:10;;;;;;;0.60;0.20;;;3.30;99.90;;;;;;5076125;28;20111;-65
2021/11/27 04:04:39;;;;;;;0.50;0.30;;;3.30;99.90;;;;;;5074730;28;20044;-65
2021/11/27 04:07:05;;;;;;;0.80;0.30;;;3.30;99.90;;;;;;5076050;28;20028;-64
2021/11/27 04:09:32;;;;;;;0.88;0.20;;;3.30;99.90;;;;;;5075724;28;20037;-65
2021/11/27 04:11:58;;;;;;;2.92;0.40;;;3.30;99.90;;;;;;5058049;28;20021;-65
2021/11/27 04:14:24;;;;;;;1.60;0.30;;;3.30;99.90;;;;;;5076161;28;20125;-64
2021/11/27 04:16:50;;;;;;;1.63;0.30;;;3.30;99.90;;;;;;5075983;28;20099;-65
2021/11/27 04:19:15;;;;;;;1.15;0.30;;;3.30;99.90;;;;;;5075779;28;20099;-65
2021/11/27 04:21:41;;;;;;;2.40;0.50;;;3.30;99.90;;;;;;5074188;28;20078;-65
2021/11/27 04:24:07;;;;;;;2.20;0.40;;;3.20;99.90;;;;;;5075554;28;20528;-65
2021/11/27 04:26:32;;;;;;;1.15;0.35;;;3.20;99.90;;;;;;5075681;28;20060;-64
2021/11/27 04:28:58;;;;;;;3.30;1.35;;;3.20;99.90;;;;;;5075684;28;20102;-65
2021/11/27 04:31:23;;;;;;;4.57;0.45;;;3.20;99.90;;;;;;5075511;28;20071;-65
2021/11/27 04:33:51;;;;;;;1.05;0.30;;;3.20;99.90;;;;;;5074180;28;20031;-64
2021/11/27 04:36:18;;;;;;;1.02;0.30;;;3.20;99.90;;;;;;5075255;28;20032;-65
2021/11/27 04:38:44;;;;;;;0.20;0.20;;;3.20;99.90;;;;;;5075540;28;20020;-64
2021/11/27 04:41:10;;;;;;;0.65;0.20;;;3.20;99.90;;;;;;5075238;28;20027;-65
2021/11/27 04:43:35;;;;;;;0.50;0.40;;;3.20;99.90;;;;;;5075219;28;20029;-65
2021/11/27 04:46:02;;;;;;;0.25;0.20;;;3.10;99.90;;;;;;5075381;28;20021;-65
2021/11/27 04:48:27;;;;;;;0.90;0.20;;;3.10;99.90;;;;;;5075299;28;20067;-64
2021/11/27 04:50:53;;;;;;;0.47;0.25;;;3.10;99.90;;;;;;5075195;28;20056;-64
2021/11/27 04:53:19;;;;;;;0.35;0.20;;;3.10;99.90;;;;;;5075293;28;20032;-65
2021/11/27 04:55:44;;;;;;;0.30;0.17;;;3.10;99.90;;;;;;5073514;28;20025;-65
2021/11/27 04:58:10;;;;;;;0.93;0.20;;;3.00;99.90;;;;;;5075058;28;20020;-64
2021/11/27 05:00:49;;;;;;;0.60;0.30;;;3.00;99.90;;;;;;5073606;28;20033;-65
2021/11/27 05:03:15;;;;;;;0.40;0.20;;;3.00;99.90;;;;;;5075044;28;20068;-65
2021/11/27 05:05:40;;;;;;;0.60;0.30;;;3.00;99.90;;;;;;5073774;28;20468;-65
2021/11/27 05:08:06;;;;;;;0.63;0.15;;;3.00;99.90;;;;;;5073751;28;20510;-64
2021/11/27 05:10:32;;;;;;;0.80;0.20;;;2.90;99.90;;;;;;5073201;28;20146;-65
2021/11/27 05:12:58;;;;;;;0.68;0.20;;;2.90;99.90;;;;;;5075012;28;20362;-65
2021/11/27 05:15:23;;;;;;;0.30;0.20;;;2.90;99.90;;;;;;5073400;28;20111;-65
2021/11/27 05:17:49;;;;;;;0.70;0.30;;;2.90;99.90;;;;;;5074710;28;20021;-65
2021/11/27 05:20:15;;;;;;;1.17;0.20;;;2.90;99.90;;;;;;5074590;28;20025;-65
2021/11/27 05:22:41;;;;;;;2.80;0.28;;;2.80;99.90;;;;;;5073458;28;20059;-65
2021/11/27 05:25:07;;;;;;;0.68;0.30;;;2.80;99.90;;;;;;5074204;28;20029;-65
2021/11/27 05:27:35;;;;;;;1.02;0.40;;;2.80;99.90;;;;;;5073003;28;20357;-65
2021/11/27 05:30:01;;;;;;;1.40;0.30;;;2.80;99.90;;;;;;5056367;28;20484;-65
2021/11/27 05:35:02;;;;;;;1.15;0.38;;;2.80;99.90;;;;;;5074457;28;20024;-65
2021/11/27 05:37:29;;;;;;;1.27;0.60;;;2.80;99.90;;;;;;5074283;28;20073;-65
2021/11/27 05:39:55;;;;;;;1.08;0.50;;;2.80;99.90;;;;;;5074302;28;20028;-65
2021/11/27 05:42:21;;;;;;;1.63;0.60;;;2.80;99.90;;;;;;5074117;28;20033;-65
2021/11/27 05:44:49;;;;;;;1.35;0.47;;;2.80;99.90;;;;;;5074248;28;20486;-65
2021/11/27 05:47:15;;;;;;;0.95;0.43;;;2.80;99.90;;;;;;5074125;28;20489;-65
2021/11/27 05:49:41;;;;;;;0.82;0.35;;;2.80;99.90;;;;;;5074083;28;20025;-65
2021/11/27 05:52:07;;;;;;;1.45;0.55;;;2.80;99.90;;;;;;5072027;28;20027;-65
2021/11/27 05:54:33;;;;;;;1.13;0.40;;;2.80;99.90;;;;;;5073925;28;20036;-65
2021/11/27 05:56:59;;;;;;;1.15;0.60;;;2.80;99.90;;;;;;5073658;28;20053;-65
2021/11/27 05:59:24;;;;;;;1.05;0.45;;;2.80;99.90;;;;;;5073850;28;20029;-65
2021/11/27 06:01:50;;;;;;;1.95;0.45;;;2.70;99.90;;;;;;5073870;28;20024;-65
2021/11/27 06:04:15;;;;;;;1.17;0.50;;;2.80;99.90;;;;;;5055784;28;20538;-65
2021/11/27 06:06:41;;;;;;;0.80;0.40;;;2.70;99.90;;;;;;5072348;28;20141;-65
2021/11/27 06:09:06;;;;;;;2.28;0.50;;;2.70;99.90;;;;;;5073812;28;20051;-65
2021/11/27 06:11:32;;;;;;;1.15;0.60;;;2.70;99.90;;;;;;5073313;28;20060;-65
2021/11/27 06:13:57;;;;;;;0.70;0.40;;;2.70;99.90;;;;;;5073734;28;20107;-65
2021/11/27 06:16:23;;;;;;;0.80;0.40;;;2.70;99.90;;;;;;5073563;28;20476;-65
2021/11/27 06:18:48;;;;;;;0.98;0.60;;;2.70;99.90;;;;;;5072099;28;20024;-65
2021/11/27 06:21:16;;;;;;;1.33;0.60;;;2.80;99.90;;;;;;5073319;28;20036;-65
2021/11/27 06:23:41;;;;;;;1.23;0.68;;;2.80;99.90;;;;;;5073446;28;20017;-65
2021/11/27 06:26:07;;;;;;;0.85;0.60;;;2.80;99.90;;;;;;5073361;28;20055;-65
2021/11/27 06:28:33;;;;;;;1.42;0.57;;;2.80;99.90;;;;;;5072730;28;20029;-65
2021/11/27 06:30:59;;;;;;;1.58;0.80;;;2.80;99.90;;;;;;5066843;28;20484;-65
2021/11/27 06:33:25;;;;;;;1.75;0.85;;;2.80;99.90;;;;;;5065660;28;20063;-65
2021/11/27 06:35:51;;;;;;;1.45;0.80;;;2.80;99.90;;;;;;5042352;28;20385;-65
2021/11/27 06:38:16;;;;;;;2.10;0.80;;;2.80;99.90;;;;;;5062634;28;20147;-65
2021/11/27 06:40:42;;;;;;;1.50;0.80;;;2.80;99.90;;;;;;5065547;28;20425;-65
2021/11/27 06:43:08;;;;;;;2.05;0.90;;;2.80;99.90;;;;;;5064854;28;20024;-65
2021/11/27 06:45:34;;;;;;;2.15;0.93;;;2.80;99.90;;;;;;5062605;28;20405;-65
2021/11/27 06:48:00;;;;;;;1.48;0.73;;;2.80;99.90;;;;;;5062710;28;20374;-65
2021/11/27 06:50:26;;;;;;;1.90;1.00;;;2.80;99.90;;;;;;5055525;28;20029;-65
2021/11/27 06:52:52;;;;;;;1.75;0.98;;;2.80;99.90;;;;;;5059205;28;20032;-65
2021/11/27 06:55:17;;;;;;;2.00;1.10;;;2.80;99.90;;;;;;5034934;28;20021;-65
2021/11/27 06:58:00;;;;;;;2.05;1.17;;;2.80;99.90;;;;;;5057001;28;20048;-65
2021/11/27 07:00:26;;;;;;;2.88;1.10;;;2.80;99.90;;;;;;5071470;28;20369;-65
2021/11/27 07:02:52;;;;;;;2.97;1.35;;;2.80;99.90;;;;;;5054273;28;20036;-65
2021/11/27 07:05:18;;;;;;;2.83;1.73;;;2.80;99.90;;;;;;5070961;28;20028;-65
2021/11/27 07:07:43;;;;;;;2.75;1.80;;;2.80;99.90;;;;;;5072404;28;20029;-65
2021/11/27 07:10:33;;;;;;;2.70;1.58;;;2.80;99.90;;;;;;5072773;28;20025;-65
2021/11/27 07:13:31;;;;;;;2.90;1.48;;;2.90;99.90;;;;;;5072518;28;20032;-65
2021/11/27 07:16:30;;;;;;;2.65;1.63;;;2.90;99.90;;;;;;5054253;28;20029;-65
2021/11/27 07:18:55;;;;;;;5.07;2.08;;;2.80;99.90;;;;;;5051717;28;20040;-64
2021/11/27 07:21:21;;;;;;;3.72;2.05;;;2.80;99.90;;;;;;5036848;28;20087;-64
2021/11/27 07:23:46;;;;;;;4.95;2.83;;;2.90;99.90;;;;;;5052579;28;20104;-65
2021/11/27 07:26:12;;;;;;;4.63;2.60;;;2.90;99.90;;;;;;5056833;28;20086;-64
2021/11/27 07:28:38;;;;;;;3.72;2.30;;;2.90;99.90;;;;;;5069112;28;20499;-64
2021/11/27 07:31:34;;;;;;;4.47;2.60;;;2.90;99.90;;;;;;5068602;28;20026;-64
2021/11/27 07:41:37;;;;;;;4.05;2.28;;;3.10;99.90;;;;;;4914366;28;20175;-65
2021/11/27 07:44:02;;;;;;;3.83;2.00;;;3.10;99.90;;;;;;4991277;28;20023;-64
2021/11/27 07:46:29;;;;;;;4.63;3.08;;;3.00;99.90;;;;;;4991506;28;20019;-64
2021/11/27 07:48:55;;;;;;;4.72;2.53;;;3.00;99.90;;;;;;5030228;28;20051;-64
2021/11/27 07:51:38;;;;;;;5.53;3.00;;;3.10;99.90;;;;;;5052353;28;20056;-64
2021/11/27 07:54:04;;;;;;;4.80;3.08;;;3.10;99.90;;;;;;5063902;28;20416;-64
2021/11/27 07:56:45;;;;;;;;;;;;;;;;;;;;;
2021/11/27 07:59:11;;;;;;;4.72;2.63;;;3.20;99.90;;;;;;5066631;28;20013;-65
2021/11/27 08:01:36;;;;;;;6.32;2.88;;;3.20;99.90;;;;;;5068118;28;20116;-64
2021/11/27 08:04:02;;;;;;;6.85;3.80;;;3.20;99.90;;;;;;5064952;28;20043;-65
2021/11/27 08:06:28;;;;;;;4.00;2.92;;;3.20;99.90;;;;;;5067463;28;20036;-65
2021/11/27 08:08:54;;;;;;;5.43;3.40;;;3.30;99.90;;;;;;5070328;28;20099;-65
2021/11/27 08:11:21;;;;;;;5.25;3.60;;;3.30;99.90;;;;;;5053120;28;20025;-64
2021/11/27 08:13:48;;;;;;;5.90;3.08;;;3.40;99.90;;;;;;5071968;28;20032;-64
2021/11/27 08:16:14;;;;;;;4.28;2.72;;;3.30;99.90;;;;;;5074273;28;20381;-65
2021/11/27 08:18:40;;;;;;;3.97;2.83;;;3.40;99.90;;;;;;5075718;28;20108;-65
2021/11/27 08:21:06;;;;;;;5.20;3.42;;;3.40;99.90;;;;;;5068458;28;20111;-65
2021/11/27 08:23:31;;;;;;;4.63;2.97;;;3.40;99.90;;;;;;5053325;28;20512;-65
2021/11/27 08:25:57;;;;;;;4.18;2.78;;;3.40;99.90;;;;;;5075879;28;20024;-65
2021/11/27 08:28:23;;;;;;;3.40;1.85;;;3.50;99.90;;;;;;5070250;28;20024;-65
2021/11/27 08:30:48;;;;;;;3.67;2.28;;;3.50;99.90;;;;;;5064225;28;20056;-65
2021/11/27 08:33:14;;;;;;;4.25;2.63;;;3.50;99.90;;;;;;5057579;28;20028;-65
2021/11/27 08:35:45;;;;;;;3.80;2.47;;;3.50;99.90;;;;;;5057386;28;20123;-65
2021/11/27 08:38:11;;;;;;;5.88;3.00;;;3.60;99.90;;;;;;5057019;28;20039;-64
2021/11/27 08:40:36;;;;;;;6.68;4.20;;;3.60;99.90;;;;;;5044880;28;20070;-64
2021/11/27 08:43:02;;;;;;;7.15;4.35;;;3.60;99.90;;;;;;5072184;28;20095;-65
2021/11/27 08:45:28;;;;;;;5.68;3.83;;;3.60;99.90;;;;;;5074896;28;20024;-65
2021/11/27 08:47:54;;;;;;;5.63;4.07;;;3.70;99.90;;;;;;5037042;28;20036;-64
2021/11/27 08:50:43;;;;;;;;;;;;;;;;;;;;;
2021/11/27 08:53:20;;;;;;;;;;;3.80;99.90;;;;;;5075341;28;20025;-65
2021/11/27 08:55:45;;;;;;;8.50;4.45;;;3.80;99.90;;;;;;5074364;28;19916;-65
2021/11/27 08:58:11;;;;;;;6.85;4.20;;;3.90;99.90;;;;;;5075026;28;20082;-65
2021/11/27 09:00:37;;;;;;;6.38;3.58;;;3.90;99.90;;;;;;5074925;28;20029;-65
2021/11/27 09:03:05;;;;;;;6.60;3.42;;;4.00;99.90;;;;;;5074816;28;20086;-66
2021/11/27 09:05:31;;;;;;;4.38;2.47;;;4.00;99.90;;;;;;5074614;28;20111;-65
2021/11/27 09:08:26;;;;;;;6.32;1.83;;;4.00;99.90;;;;;;5066370;28;20025;-65
2021/11/27 09:10:51;;;;;;;2.63;1.05;;;4.10;99.90;;;;;;5056148;28;20094;-65
2021/11/27 09:13:25;;;;;;;1.92;0.82;;;4.10;99.90;;;;;;5065418;28;20029;-65
2021/11/27 09:15:51;;;;;;;1.13;0.63;;;4.00;99.90;;;;;;5062286;28;20021;-64
2021/11/27 09:18:16;;;;;;;1.38;0.68;;;4.00;99.90;;;;;;5067649;28;20074;-65
2021/11/27 09:21:27;;;;;;;;;;;;;;;;;;;;;
2021/11/27 09:23:56;;;;;;;1.92;1.02;;;4.00;99.90;;;;;;5060985;28;20380;-65
2021/11/27 09:26:22;;;;;;;2.92;0.77;;;3.90;99.90;;;;;;5072591;28;20050;-65
2021/11/27 09:28:47;;;;;;;2.78;0.93;;;3.90;99.90;;;;;;5071636;28;20555;-65
2021/11/27 09:31:18;;;;;;;2.53;1.00;;;3.90;99.90;;;;;;5069643;28;20028;-66
2021/11/27 09:33:44;;;;;;;1.50;0.80;;;4.00;99.90;;;;;;5067050;28;20013;-65
2021/11/27 09:36:14;;;;;;;6.30;1.95;;;4.00;99.90;;;;;;5071696;28;20090;-65
2021/11/27 09:38:40;;;;;;;28.65;11.98;;;4.00;99.90;;;;;;5052272;28;20108;-67
2021/11/27 09:41:23;;;;;;;56.95;25.67;;;4.10;99.90;;;;;;5055479;28;20033;-65
2021/11/27 09:43:51;;;;;;;78.05;35.20;;;4.10;99.90;;;;;;5073240;28;20031;-65
2021/11/27 09:46:21;;;;;;;80.55;37.33;;;4.00;99.90;;;;;;5073138;28;20104;-65
2021/11/27 09:48:51;;;;;;;77.55;38.08;;;4.00;99.90;;;;;;5073281;28;20563;-65
2021/11/27 09:51:21;;;;;;;;;;;3.90;99.90;;;;;;5066748;28;20036;-65
2021/11/27 09:53:48;;;;;;;79.80;33.40;;;3.80;99.90;;;;;;5060241;28;19920;-65
2021/11/27 09:56:16;;;;;;;66.45;31.73;;;3.80;99.90;;;;;;5066838;28;20287;-65
2021/11/27 09:58:42;;;;;;;71.47;33.53;;;3.80;99.90;;;;;;5069170;28;20397;-65
2021/11/27 10:01:08;;;;;;;69.50;33.55;;;3.80;99.90;;;;;;5045497;28;20095;-65
2021/11/27 10:03:34;;;;;;;69.63;34.40;;;3.80;99.90;;;;;;5042800;28;20055;-66
2021/11/27 10:06:16;;;;;;;66.28;31.35;;;3.80;99.90;;;;;;5066474;28;20017;-65
2021/11/27 10:08:41;;;;;;;63.80;31.15;;;3.90;99.90;;;;;;5053699;28;20017;-66
2021/11/27 10:11:15;;;;;;;68.93;33.40;;;3.90;99.90;;;;;;5066164;28;20033;-65
2021/11/27 10:13:40;;;;;;;63.72;32.38;;;3.90;99.90;;;;;;5066188;28;20017;-65
2021/11/27 10:16:06;;;;;;;60.92;31.25;;;3.90;99.90;;;;;;5069165;28;20591;-65
2021/11/27 10:18:47;;;;;;;60.72;29.85;;;3.90;99.90;;;;;;5068319;28;20380;-66
2021/11/27 10:24:25;;;;;;;56.08;30.35;;;4.00;99.90;;;;;;5009167;28;20037;-66
2021/11/27 10:26:52;;;;;;;47.97;26.13;;;4.00;99.90;;;;;;5064317;28;20040;-65
2021/11/27 10:29:28;;;;;;;53.63;30.52;;;4.00;99.90;;;;;;5067639;28;20028;-65
2021/11/27 10:32:11;;;;;;;56.45;31.45;;;4.10;99.90;;;;;;5052674;28;20126;-65
2021/11/27 10:34:40;;;;;;;58.88;33.33;;;4.10;99.90;;;;;;5068324;28;20474;-65
2021/11/27 10:37:33;;;;;;;57.90;31.38;;;4.10;99.90;;;;;;5043083;28;20032;-66
2021/11/27 10:40:16;;;;;;;60.72;34.97;;;4.10;99.90;;;;;;5068092;28;20031;-66
2021/11/27 10:43:07;;;;;;;53.00;31.73;;;4.00;99.90;;;;;;5050775;28;20048;-65
2021/11/27 10:45:52;;;;;;;53.70;29.00;;;4.10;99.90;;;;;;5061462;28;20029;-65
2021/11/27 10:48:20;;;;;;;48.05;29.50;;;4.10;99.90;;;;;;5065299;28;20482;-65
2021/11/27 10:50:52;;;;;;;50.35;28.33;;;4.20;99.90;;;;;;5070972;28;20036;-65
2021/11/27 10:53:33;;;;;;;52.05;30.05;;;4.20;99.90;;;;;;5068042;28;20021;-66
2021/11/27 10:56:10;;;;;;;50.15;29.58;;;4.30;99.90;;;;;;5047531;28;20017;-65
2021/11/27 10:59:03;;;;;;;45.95;27.02;;;4.40;99.90;;;;;;5069565;28;20029;-66
2021/11/27 11:01:29;;;;;;;41.78;27.08;;;4.50;99.90;;;;;;5060358;28;20062;-65
2021/11/27 11:03:55;;;;;;;46.08;28.50;;;4.50;99.90;;;;;;5057326;28;20476;-65
2021/11/27 11:06:23;;;;;;;40.78;24.60;;;4.60;99.90;;;;;;5072583;28;20028;-66
2021/11/27 11:08:50;;;;;;;38.70;21.52;;;4.70;99.90;;;;;;5072562;28;20272;-65
2021/11/27 11:11:25;;;;;;;34.08;20.48;;;4.80;99.90;;;;;;5072529;28;20052;-65
2021/11/27 11:13:57;;;;;;;41.15;19.75;;;5.00;99.90;;;;;;5072402;28;20091;-66
2021/11/27 11:16:28;;;;;;;30.88;18.73;;;5.10;99.90;;;;;;5054705;28;20021;-66
2021/11/27 11:19:15;;;;;;;30.48;18.88;;;5.20;99.90;;;;;;5052516;28;20044;-65
2021/11/27 11:22:20;;;;;;;25.27;15.15;;;5.60;99.90;;;;;;5072311;28;20439;-65
2021/11/27 11:24:46;;;;;;;31.85;16.40;;;6.00;99.90;;;;;;5072433;28;20568;-66
2021/11/27 11:27:27;;;;;;;25.17;15.20;;;6.20;99.90;;;;;;5072729;28;20058;-66
2021/11/27 11:30:07;;;;;;;;;;;;;;;;;;;;;
2021/11/27 11:32:33;;;;;;;23.73;14.93;;;6.80;99.90;;;;;;5072148;28;20024;-66
2021/11/27 11:35:17;;;;;;;21.35;12.85;;;7.40;99.90;;;;;;5072363;28;20101;-66
2021/11/27 11:37:42;;;;;;;19.20;12.27;;;8.20;99.90;;;;;;5072202;28;20048;-66
2021/11/27 11:40:09;;;;;;;22.40;11.27;;;9.30;99.90;;;;;;5072297;28;20028;-66
2021/11/27 11:42:35;;;;;;;17.02;7.53;;;11.10;99.90;;;;;;5052666;28;20032;-67
2021/11/27 11:45:00;;;;;;;15.35;7.47;;;12.90;99.50;;;;;;5073918;28;20433;-67
2021/11/27 11:47:26;;;;;;;11.52;7.25;;;13.40;97.40;;;;;;5073066;28;20437;-67
2021/11/27 11:50:42;;;;;;;12.18;7.30;;;13.30;96.60;;;;;;5068430;28;20025;-66
2021/11/27 11:53:08;;;;;;;19.30;8.40;;;13.20;96.70;;;;;;5068472;28;20033;-66
2021/11/27 11:55:36;;;;;;;14.50;7.45;;;13.50;94.90;;;;;;5068653;28;20016;-66
2021/11/27 11:58:02;;;;;;;18.85;7.95;;;13.40;94.10;;;;;;5071416;28;20106;-67
2021/11/27 12:00:37;;;;;;;15.57;6.85;;;13.10;92.70;;;;;;5055627;28;20458;-66
2021/11/27 12:03:30;;;;;;;;;;;;;;;;;;;;;
2021/11/27 12:05:56;;;;;;;9.63;5.38;;;12.30;92.10;;;;;;5072553;28;20036;-66
2021/11/27 12:08:51;;;;;;;15.27;6.13;;;12.00;92.60;;;;;;5052274;28;20120;-66
2021/11/27 12:11:41;;;;;;;12.65;5.63;;;11.70;91.30;;;;;;5051719;28;20037;-66
2021/11/27 12:15:05;;;;;;;14.43;5.57;;;11.10;90.80;;;;;;5075876;28;20426;-66
2021/11/27 12:18:00;;;;;;;11.57;5.80;;;10.70;91.20;;;;;;5050459;28;20048;-66
2021/11/27 12:20:52;;;;;;;;;;;;;;;;;;;;;
2021/11/27 12:26:40;;;;;;;15.45;6.80;;;9.60;89.60;;;;;;5051537;28;20035;-66
2021/11/27 12:29:05;;;;;;;14.48;6.93;;;9.20;90.10;;;;;;5075580;28;20027;-66
2021/11/27 12:31:48;;;;;;;14.38;6.85;;;9.00;90.40;;;;;;5071194;28;20037;-66
2021/11/27 12:34:34;;;;;;;18.90;7.40;;;8.80;90.00;;;;;;5074590;28;20100;-66
2021/11/27 12:37:00;;;;;;;14.77;6.82;;;9.00;90.00;;;;;;5072994;28;20039;-66
2021/11/27 12:39:25;;;;;;;15.27;6.65;;;9.60;89.60;;;;;;5052891;28;20370;-66
2021/11/27 12:42:22;;;;;;;9.00;5.50;;;9.70;86.70;;;;;;5074416;28;20499;-66
2021/11/27 12:44:55;;;;;;;15.57;7.07;;;9.80;87.00;;;;;;5074992;28;20033;-66
2021/11/27 12:47:22;;;;;;;16.10;8.40;;;9.80;86.70;;;;;;5044177;28;20053;-66
2021/11/27 12:49:50;;;;;;;19.13;8.32;;;9.90;86.30;;;;;;5037114;28;20502;-66
2021/11/27 12:52:24;;;;;;;12.95;6.93;;;10.10;85.70;;;;;;5055387;28;20701;-66
2021/11/27 12:55:16;;;;;;;15.05;7.57;;;10.30;85.60;;;;;;5070265;28;20066;-66
2021/11/27 12:57:48;;;;;;;14.88;7.30;;;9.90;85.90;;;;;;5022782;28;20041;-66
2021/11/27 13:00:22;;;;;;;14.73;6.78;;;9.40;85.80;;;;;;5070166;28;20024;-66
2021/11/27 13:02:57;;;;;;;14.80;7.47;;;8.80;87.10;;;;;;5049335;28;20029;-66
2021/11/27 13:05:44;;;;;;;13.65;7.75;;;8.50;89.30;;;;;;5056534;28;20033;-66
2021/11/27 13:08:11;;;;;;;12.90;6.32;;;8.30;90.20;;;;;;5074870;28;20508;-66
2021/11/27 13:11:28;;;;;;;;;;;;;;;;;;;;;
2021/11/27 13:13:54;;;;;;;17.48;8.45;;;8.00;91.30;;;;;;5068445;28;20073;-67
2021/11/27 13:16:24;;;;;;;18.02;8.52;;;7.80;91.60;;;;;;5067256;28;20096;-66
2021/11/27 13:18:54;;;;;;;;;;;7.50;91.70;;;;;;5065286;28;20547;-67
2021/11/27 13:21:24;;;;;;;19.02;7.53;;;7.30;92.20;;;;;;5069969;28;20386;-67
2021/11/27 13:23:50;;;;;;;16.45;7.75;;;7.00;92.90;;;;;;5049134;28;20199;-66
2021/11/27 13:26:19;;;;;;;15.10;8.82;;;6.90;93.30;;;;;;5066562;28;20032;-66
2021/11/27 13:28:50;;;;;;;12.80;7.50;;;6.80;93.60;;;;;;5068678;28;20017;-66
2021/11/27 13:31:37;;;;;;;17.75;7.78;;;6.80;93.80;;;;;;5054417;28;20075;-66